Aérodrome :
LOGIN :

S'inscrire | Disclaimer

   EN    FR    IT 

 










Légende :    VFR   VFR Marginal   IFR   IFR Intensif   IFR Très Intensif
Visi : 
Plafond : 
>= 8 km
>= 3000ft
5 à 8 km
1000 à 3000 ft
1500m à 5 km
500 à 1000 ft
800 à 1500m
200 à 500 ft
< 800m
< 200 ft
Symboles :   Orages  Brouillard  Fortes neiges  Fortes précipitations  Vent > 20 kt
SIGMETs :   Divers  Orages  Givrage  Turbulence  Onde Orograph.  Cendres Volcan.







- Altitude de l'aérodrome : 18 ft


LIPC - Cervia AFB Ravenna

DERNIER METAR :
  • 221955Z 00000KT CAVOK 24/22 Q1009 RMK SCT FEW100 VIS MIN 9999 WIND THR11 00000KT WIND THR29 /////KT BLU

METARs EXPIRÉS :
  • 221855Z 19003KT 9999 FEW050 25/22 Q1009 RMK BKN BKN130 VIS MIN 9999 WIND THR11 17003KT WIND THR29 /////KT BLU
  • 221755Z 15003KT 9999 FEW050 26/23 Q1009

TAF TAF LIPC
Valide du 22 à 18h jusqu'au 23 à 03h UTC


221700Z 2218/2303 29005KT 9999 SCT030
TEMPO 2218/2303 3000 TSRA FEW020CB SCT030
Pas de NOTAMs connus pour ce terrain.
1 SIGMET publié pour la FIR Milano (LIMM) :
 
Turbulence forte
LIMM SIGMET 2 VALID 221930/222330 LIIP
LIMM MILANO FIR SEV TURB FCST ENTIRE FIR ABV FL280 STNR NC=



MET'MAP, la Météo Aéronautique d'un coup d'oeil ! - Copyright ORBIFLY Décembre 2007 - Disclaimer

ORBIFLY MET'MAP TEAM :

Programmation & Développement : Alexandra Zaïnal
Conception & Développement : Baudouin d'Aumeries
Co-Programmation & Développement : Marc-Olivier Méhu
Soutien technique & logistique : Manuel Goepfert

Contact : metmap@orbifly.com




SOURCES & CREDITS :

   NOAA